Time;durP1;ratioP1;P1;durP2;ratioP2;P2;SDS_P1;SDS_P2;PMS_P1;PMS_P2;Temp;Humidity;BMP_temperature;BMP_pressure;BME280_temperature;BME280_humidity;BME280_pressure;Samples;Min_cycle;Max_cycle;Signal;HPM_P1;HPM_P2
2022/11/17 00:00:19;;;;;;;2.05;1.83;;;5.10;99.90;;;;;;5056182;28;20112;-57
2022/11/17 00:02:45;;;;;;;2.13;1.92;;;5.00;99.90;;;;;;5066272;28;20094;-58
2022/11/17 00:05:11;;;;;;;2.22;1.90;;;5.10;99.90;;;;;;5050622;28;20557;-53
2022/11/17 00:07:37;;;;;;;2.50;2.30;;;5.10;99.90;;;;;;5041040;28;20029;-56
2022/11/17 00:10:03;;;;;;;3.03;2.55;;;5.00;99.90;;;;;;5065008;28;20033;-55
2022/11/17 00:15:12;;;;;;;3.63;2.65;;;5.00;99.90;;;;;;5057526;28;20063;-55
2022/11/17 00:17:38;;;;;;;3.10;2.60;;;5.00;99.90;;;;;;5058075;28;20036;-58
2022/11/17 00:22:48;;;;;;;3.30;2.45;;;5.00;99.90;;;;;;5052871;28;20047;-54
2022/11/17 00:25:14;;;;;;;2.78;2.47;;;5.00;99.90;;;;;;5061172;28;20029;-56
2022/11/17 00:27:39;;;;;;;3.47;2.38;;;5.00;99.90;;;;;;5064552;28;20037;-55
2022/11/17 00:30:05;;;;;;;3.78;2.60;;;5.00;99.90;;;;;;5061543;28;20021;-58
2022/11/17 00:35:15;;;;;;;3.30;2.63;;;5.00;99.90;;;;;;5052851;28;20563;-57
2022/11/17 00:40:45;;;;;;;4.20;2.72;;;5.00;99.90;;;;;;4974306;28;20065;-59
2022/11/17 00:43:11;;;;;;;2.70;2.38;;;5.00;99.90;;;;;;4961228;28;20762;-54
2022/11/17 00:45:36;;;;;;;4.43;2.60;;;5.00;99.90;;;;;;5013829;28;20119;-55
2022/11/17 00:48:02;;;;;;;2.85;2.55;;;5.00;99.90;;;;;;5058082;28;20035;-57
2022/11/17 00:50:28;;;;;;;4.18;3.40;;;5.00;99.90;;;;;;5058971;28;20029;-54
2022/11/17 00:52:53;;;;;;;4.28;3.28;;;5.00;99.90;;;;;;5054906;28;21811;-57
2022/11/17 00:55:19;;;;;;;3.03;2.72;;;5.00;99.90;;;;;;5056061;28;20075;-54
2022/11/17 00:57:44;;;;;;;5.40;3.47;;;5.00;99.90;;;;;;5062729;28;20028;-56
2022/11/17 01:00:10;;;;;;;4.50;3.20;;;4.90;99.90;;;;;;5051891;28;20078;-57
2022/11/17 01:02:36;;;;;;;3.42;2.95;;;4.90;99.90;;;;;;5058984;28;20086;-56
2022/11/17 01:05:02;;;;;;;3.58;3.13;;;4.90;99.90;;;;;;5058041;28;20435;-57
2022/11/17 01:07:27;;;;;;;3.47;2.80;;;4.90;99.90;;;;;;5058943;28;20032;-53
2022/11/17 01:09:53;;;;;;;5.55;2.95;;;4.80;99.90;;;;;;5055978;28;20054;-53
2022/11/17 01:12:19;;;;;;;4.05;2.92;;;4.80;99.90;;;;;;5057272;28;20029;-57
2022/11/17 01:14:44;;;;;;;4.93;3.20;;;4.80;99.90;;;;;;5058967;28;20503;-53
2022/11/17 01:17:10;;;;;;;4.28;2.75;;;4.80;99.90;;;;;;5057333;28;20040;-53
2022/11/17 01:19:35;;;;;;;5.13;3.15;;;4.70;99.90;;;;;;5057677;28;20488;-55
2022/11/17 01:22:01;;;;;;;4.40;2.90;;;4.70;99.90;;;;;;5062960;28;20027;-57
2022/11/17 01:24:26;;;;;;;3.83;3.35;;;4.70;99.90;;;;;;5057073;28;20021;-53
2022/11/17 01:26:52;;;;;;;3.80;3.30;;;4.70;99.90;;;;;;5059127;28;20027;-53
2022/11/17 01:29:17;;;;;;;3.35;2.85;;;4.70;99.90;;;;;;5048752;28;20056;-56
2022/11/17 01:31:47;;;;;;;3.15;2.85;;;4.70;99.90;;;;;;5038627;28;20053;-58
2022/11/17 01:34:13;;;;;;;3.08;2.78;;;4.70;99.90;;;;;;5052783;28;20111;-57
2022/11/17 01:39:26;;;;;;;3.55;3.25;;;4.70;99.90;;;;;;5053785;28;20419;-55
2022/11/17 01:41:53;;;;;;;4.10;3.70;;;4.70;99.90;;;;;;5053453;28;20044;-55
2022/11/17 01:45:01;;;;;;;4.95;3.70;;;4.60;99.90;;;;;;5063165;28;20028;-54
2022/11/17 01:47:51;;;;;;;6.20;3.88;;;4.60;99.90;;;;;;5052238;28;20033;-54
2022/11/17 01:50:19;;;;;;;3.50;3.20;;;4.60;99.90;;;;;;5050469;28;20673;-57
2022/11/17 01:52:47;;;;;;;4.97;4.18;;;4.60;99.90;;;;;;5060776;28;20029;-53
2022/11/17 01:55:13;;;;;;;3.85;3.55;;;4.60;99.90;;;;;;5049606;28;20024;-54
2022/11/17 01:57:45;;;;;;;4.95;4.45;;;4.60;99.90;;;;;;5061928;28;20703;-57
2022/11/17 02:00:12;;;;;;;4.72;4.13;;;4.60;99.90;;;;;;5042276;28;20547;-56
2022/11/17 02:02:38;;;;;;;3.72;3.42;;;4.60;99.90;;;;;;5054396;28;20564;-53
2022/11/17 02:05:25;;;;;;;5.03;3.90;;;4.50;99.90;;;;;;5056323;28;20058;-56
2022/11/17 02:07:53;;;;;;;4.18;3.78;;;4.50;99.90;;;;;;5053687;28;20025;-55
2022/11/17 02:10:19;;;;;;;4.15;3.75;;;4.50;99.90;;;;;;5058953;28;20327;-55
2022/11/17 02:12:46;;;;;;;5.07;3.65;;;4.50;99.90;;;;;;5052366;28;20025;-58
2022/11/17 02:15:12;;;;;;;4.63;4.07;;;4.50;99.90;;;;;;5061967;28;20593;-52
2022/11/17 02:17:40;;;;;;;4.88;4.05;;;4.50;99.90;;;;;;5056437;28;20120;-53
2022/11/17 02:20:29;;;;;;;5.38;4.88;;;4.50;99.90;;;;;;5060435;28;20025;-53
2022/11/17 02:23:30;;;;;;;4.50;4.05;;;4.50;99.90;;;;;;5033497;28;20032;-55
2022/11/17 02:26:02;;;;;;;6.03;4.50;;;4.50;99.90;;;;;;5029838;28;20025;-53
2022/11/17 02:28:35;;;;;;;4.45;3.70;;;4.50;99.90;;;;;;5059930;28;20075;-52
2022/11/17 02:31:15;;;;;;;4.78;4.00;;;4.40;99.90;;;;;;5058641;28;20033;-52
2022/11/17 02:34:03;;;;;;;4.97;4.20;;;4.40;99.90;;;;;;5055444;28;20113;-53
2022/11/17 02:36:45;;;;;;;5.18;4.43;;;4.40;99.90;;;;;;5052220;28;20032;-55
2022/11/17 02:39:36;;;;;;;5.43;4.93;;;4.40;99.90;;;;;;5063188;28;20115;-53
2022/11/17 02:44:02;;;;;;;5.13;4.40;;;4.40;99.90;;;;;;5053669;28;20104;-53
2022/11/17 02:45:10;;;;;;;5.15;4.35;;;4.40;99.90;;;;;;5054932;28;20451;-55
2022/11/17 02:47:40;;;;;;;6.72;5.18;;;4.30;99.90;;;;;;5043577;28;20024;-56
2022/11/17 02:50:08;;;;;;;5.05;4.35;;;4.40;99.90;;;;;;5050309;28;20017;-52
2022/11/17 02:52:33;;;;;;;6.95;5.22;;;4.30;99.90;;;;;;5038137;28;20108;-53
2022/11/17 02:55:01;;;;;;;4.88;4.35;;;4.30;99.90;;;;;;5056378;28;20045;-56
2022/11/17 02:57:32;;;;;;;5.10;4.32;;;4.20;99.90;;;;;;5047526;28;20559;-55
2022/11/17 03:00:14;;;;;;;5.18;4.65;;;4.30;99.90;;;;;;5058407;28;20035;-55
2022/11/17 03:02:51;;;;;;;5.18;4.68;;;4.30;99.90;;;;;;5060502;28;20694;-57
2022/11/17 03:05:37;;;;;;;5.53;4.88;;;4.20;99.90;;;;;;5052901;28;20503;-53
2022/11/17 03:08:32;;;;;;;5.55;5.05;;;4.30;99.90;;;;;;5057768;28;20108;-57
2022/11/17 03:11:01;;;;;;;5.13;4.47;;;4.20;99.90;;;;;;5049886;28;20477;-56
2022/11/17 03:13:41;;;;;;;5.30;4.80;;;4.20;99.90;;;;;;5055609;28;20025;-54
2022/11/17 03:16:36;;;;;;;4.78;4.38;;;4.20;99.90;;;;;;5058331;28;20799;-54
2022/11/17 03:19:27;;;;;;;4.82;4.38;;;4.20;99.90;;;;;;5057386;28;20029;-53
2022/11/17 03:22:37;;;;;;;7.53;4.50;;;4.10;99.90;;;;;;5062273;28;20047;-55
2022/11/17 03:25:06;;;;;;;4.93;4.22;;;4.20;99.90;;;;;;4959823;28;20031;-54
2022/11/17 03:27:36;;;;;;;5.05;4.55;;;4.20;99.90;;;;;;4964497;28;20115;-52
2022/11/17 03:30:07;;;;;;;7.85;4.97;;;4.20;99.90;;;;;;5011357;28;20096;-54
2022/11/17 03:32:36;;;;;;;5.07;4.57;;;4.20;99.90;;;;;;5059390;28;20033;-55
2022/11/17 03:35:13;;;;;;;4.60;4.15;;;4.20;99.90;;;;;;5054421;28;20021;-52
2022/11/17 03:37:45;;;;;;;5.10;4.60;;;4.10;99.90;;;;;;5046937;28;20041;-58
2022/11/17 03:40:13;;;;;;;6.93;4.57;;;4.10;99.90;;;;;;5058888;28;20020;-52
2022/11/17 03:42:51;;;;;;;4.55;4.15;;;4.00;99.90;;;;;;5061131;28;20033;-56
2022/11/17 03:45:30;;;;;;;5.25;4.75;;;4.10;99.90;;;;;;5062417;28;20066;-54
2022/11/17 03:48:04;;;;;;;5.53;4.90;;;4.10;99.90;;;;;;5061126;28;20029;-52
2022/11/17 03:50:37;;;;;;;4.93;4.25;;;4.10;99.90;;;;;;5062570;28;20169;-57
2022/11/17 03:53:04;;;;;;;5.78;4.75;;;4.10;99.90;;;;;;5062138;28;20040;-53
2022/11/17 03:55:44;;;;;;;5.80;4.60;;;4.10;99.90;;;;;;5062390;28;20036;-52
2022/11/17 03:58:16;;;;;;;5.80;5.30;;;4.00;99.90;;;;;;5060081;28;20033;-54
2022/11/17 04:00:42;;;;;;;5.35;4.55;;;4.00;99.90;;;;;;5062389;28;20024;-52
2022/11/17 04:03:07;;;;;;;4.85;4.35;;;4.00;99.90;;;;;;5060675;28;20674;-54
2022/11/17 04:05:33;;;;;;;5.93;5.00;;;4.00;99.90;;;;;;5062227;28;20074;-56
2022/11/17 04:07:59;;;;;;;5.13;4.50;;;4.00;99.90;;;;;;5062165;28;20523;-54
2022/11/17 04:10:25;;;;;;;5.78;4.88;;;4.00;99.90;;;;;;5062412;28;20021;-54
2022/11/17 04:15:55;;;;;;;6.25;4.97;;;4.00;99.90;;;;;;5025792;28;20098;-55
2022/11/17 04:18:22;;;;;;;5.80;4.82;;;4.00;99.90;;;;;;5055703;28;20028;-53
2022/11/17 04:20:53;;;;;;;5.60;5.03;;;4.00;99.90;;;;;;5065886;28;20024;-55
2022/11/17 04:23:19;;;;;;;5.47;4.97;;;3.90;99.90;;;;;;5053899;28;20051;-53
2022/11/17 04:28:46;;;;;;;;;;;3.90;99.90;;;;;;5057035;28;20028;-56
2022/11/17 04:31:26;;;;;;;6.30;4.97;;;3.90;99.90;;;;;;5061256;28;19908;-56
2022/11/17 04:33:57;;;;;;;7.35;5.15;;;4.00;99.90;;;;;;5059292;28;20063;-51
2022/11/17 04:36:39;;;;;;;5.85;5.25;;;3.90;99.90;;;;;;5055854;28;20066;-56
2022/11/17 04:39:05;;;;;;;6.00;5.05;;;3.90;99.90;;;;;;5047374;28;20021;-55
2022/11/17 04:44:17;;;;;;;7.95;5.38;;;3.90;99.90;;;;;;5060141;28;20043;-54
2022/11/17 04:46:44;;;;;;;6.35;5.05;;;3.90;99.90;;;;;;5061439;28;20028;-54
2022/11/17 04:49:11;;;;;;;5.88;4.90;;;3.90;99.90;;;;;;5056553;28;20044;-53
2022/11/17 04:51:37;;;;;;;5.35;4.78;;;3.90;99.90;;;;;;5060918;28;20052;-52
2022/11/17 04:54:04;;;;;;;5.03;4.50;;;3.90;99.90;;;;;;5059456;28;20067;-52
2022/11/17 04:56:30;;;;;;;6.05;5.18;;;3.90;99.90;;;;;;5036275;28;20047;-55
2022/11/17 04:58:55;;;;;;;5.40;4.90;;;3.90;99.90;;;;;;5042351;28;20032;-54
2022/11/17 05:01:22;;;;;;;7.03;5.38;;;3.90;99.90;;;;;;5037926;28;20515;-52
2022/11/17 05:03:53;;;;;;;7.68;5.68;;;3.90;99.90;;;;;;5042362;28;20025;-56
2022/11/17 05:06:33;;;;;;;7.18;5.90;;;3.90;99.90;;;;;;5042072;28;20381;-57
2022/11/17 05:09:02;;;;;;;5.70;5.10;;;3.90;99.90;;;;;;5045487;28;20043;-52
2022/11/17 05:14:15;;;;;;;6.22;5.18;;;3.90;99.90;;;;;;5064811;28;20549;-54
2022/11/17 05:19:28;;;;;;;6.97;5.13;;;3.80;99.90;;;;;;5053856;28;20039;-55
2022/11/17 05:21:54;;;;;;;8.23;6.00;;;3.80;99.90;;;;;;5042062;28;20100;-51
2022/11/17 05:24:20;;;;;;;6.57;5.57;;;3.80;99.90;;;;;;5065931;28;20115;-54
2022/11/17 05:26:47;;;;;;;6.55;5.47;;;3.80;99.90;;;;;;5041096;28;20136;-53
2022/11/17 05:29:14;;;;;;;6.05;5.20;;;3.80;99.90;;;;;;5052432;28;20468;-55
2022/11/17 05:31:41;;;;;;;7.63;5.70;;;3.80;99.90;;;;;;5056883;28;20468;-57
2022/11/17 05:34:08;;;;;;;6.68;5.70;;;3.80;99.90;;;;;;5055071;28;20040;-56
2022/11/17 05:36:34;;;;;;;7.20;5.63;;;3.80;99.90;;;;;;5061594;28;20099;-53
2022/11/17 05:39:00;;;;;;;8.88;6.35;;;3.80;99.90;;;;;;5058152;28;20057;-52
2022/11/17 05:41:27;;;;;;;6.00;5.32;;;3.80;99.90;;;;;;5056476;28;20060;-56
2022/11/17 05:43:54;;;;;;;6.15;5.45;;;3.80;99.90;;;;;;5058131;28;20053;-56
2022/11/17 05:46:20;;;;;;;7.03;6.15;;;3.80;99.90;;;;;;5057830;28;20040;-53
2022/11/17 05:48:48;;;;;;;7.90;6.22;;;3.80;99.90;;;;;;5055117;28;20051;-56
2022/11/17 05:51:15;;;;;;;7.30;5.95;;;3.70;99.90;;;;;;5065355;28;20017;-53
2022/11/17 05:53:41;;;;;;;7.13;6.05;;;3.80;99.90;;;;;;5060806;28;20488;-55
2022/11/17 05:56:29;;;;;;;6.57;5.60;;;3.70;99.90;;;;;;5057880;28;20172;-56
2022/11/17 05:59:01;;;;;;;8.68;6.07;;;3.70;99.90;;;;;;5060182;28;20035;-56
2022/11/17 06:01:28;;;;;;;6.38;5.53;;;3.70;99.90;;;;;;5050092;28;20029;-51
2022/11/17 06:03:59;;;;;;;7.30;6.03;;;3.70;99.90;;;;;;5043395;28;20036;-53
2022/11/17 06:06:24;;;;;;;8.20;6.38;;;3.80;99.90;;;;;;5040597;28;20033;-54
2022/11/17 06:08:50;;;;;;;8.40;6.93;;;3.70;99.90;;;;;;5057495;28;20503;-56
2022/11/17 06:11:17;;;;;;;7.15;6.38;;;3.70;99.90;;;;;;5040086;28;20021;-54
2022/11/17 06:13:43;;;;;;;8.88;6.07;;;3.70;99.90;;;;;;5061241;28;20021;-56
2022/11/17 06:16:11;;;;;;;8.45;6.55;;;3.70;99.90;;;;;;5058900;28;20044;-54
2022/11/17 06:18:45;;;;;;;7.47;6.38;;;3.70;99.90;;;;;;5061053;28;20534;-53
2022/11/17 06:21:14;;;;;;;6.70;6.05;;;3.70;99.90;;;;;;5061015;28;20029;-58
2022/11/17 06:23:40;;;;;;;7.55;6.65;;;3.70;99.90;;;;;;5063069;28;20505;-55
2022/11/17 06:26:07;;;;;;;7.30;6.53;;;3.80;99.90;;;;;;5057785;28;20036;-54
2022/11/17 06:28:34;;;;;;;7.60;6.30;;;3.70;99.90;;;;;;5056496;28;20035;-53
2022/11/17 06:31:01;;;;;;;8.55;6.68;;;3.70;99.90;;;;;;5044397;28;20248;-54
2022/11/17 06:33:29;;;;;;;8.80;6.03;;;3.70;99.90;;;;;;5058076;28;20480;-55
2022/11/17 06:35:55;;;;;;;9.73;6.80;;;3.70;99.90;;;;;;5049624;28;20017;-53
2022/11/17 06:38:21;;;;;;;7.45;6.70;;;3.70;99.90;;;;;;5060757;28;20028;-55
2022/11/17 06:40:47;;;;;;;8.50;6.50;;;3.70;99.90;;;;;;5058792;28;20086;-56
2022/11/17 06:43:12;;;;;;;8.60;7.00;;;3.70;99.90;;;;;;5050781;28;20031;-53
2022/11/17 06:45:43;;;;;;;7.38;6.60;;;3.70;99.90;;;;;;5055457;28;20548;-55
2022/11/17 06:48:11;;;;;;;8.32;6.80;;;3.70;99.90;;;;;;5058426;28;20033;-55
2022/11/17 06:50:37;;;;;;;7.45;6.45;;;3.70;99.90;;;;;;5058531;28;20024;-56
2022/11/17 06:53:05;;;;;;;8.10;6.47;;;3.70;99.90;;;;;;5059919;28;20013;-53
2022/11/17 06:55:31;;;;;;;7.68;6.45;;;3.70;99.90;;;;;;5063443;28;20035;-54
2022/11/17 06:58:01;;;;;;;7.63;6.75;;;3.70;99.90;;;;;;5061582;28;20021;-54
2022/11/17 07:00:28;;;;;;;6.88;6.00;;;3.70;99.90;;;;;;5045554;28;20029;-51
2022/11/17 07:03:08;;;;;;;8.00;6.93;;;3.60;99.90;;;;;;5061710;28;20413;-56
2022/11/17 07:05:34;;;;;;;8.73;6.55;;;3.60;99.90;;;;;;5063141;28;20086;-54
2022/11/17 07:08:05;;;;;;;10.27;6.78;;;3.60;99.90;;;;;;5049959;28;20424;-54
2022/11/17 07:10:33;;;;;;;7.82;6.32;;;3.60;99.90;;;;;;5056768;28;20021;-53
2022/11/17 07:12:58;;;;;;;9.20;5.97;;;3.60;99.90;;;;;;5058989;28;20531;-53
2022/11/17 07:15:24;;;;;;;8.40;5.78;;;3.60;99.90;;;;;;5066460;28;20032;-55
2022/11/17 07:17:50;;;;;;;8.90;5.85;;;3.60;99.90;;;;;;5060418;28;20437;-54
2022/11/17 07:20:16;;;;;;;7.15;6.45;;;3.60;99.90;;;;;;5063185;28;20029;-54
2022/11/17 07:22:42;;;;;;;8.02;6.60;;;3.60;99.90;;;;;;5054179;28;20032;-56
2022/11/17 07:25:09;;;;;;;8.65;6.60;;;3.60;99.90;;;;;;5061003;28;20485;-56
2022/11/17 07:27:34;;;;;;;7.43;6.22;;;3.60;99.90;;;;;;5057196;28;20095;-54
2022/11/17 07:30:00;;;;;;;8.70;7.32;;;3.60;99.90;;;;;;5058716;28;20589;-57
2022/11/17 07:32:26;;;;;;;8.75;6.78;;;3.60;99.90;;;;;;5061499;28;20389;-56
2022/11/17 07:34:52;;;;;;;6.50;5.78;;;3.60;99.90;;;;;;5056937;28;20094;-52
2022/11/17 07:37:17;;;;;;;8.75;6.93;;;3.60;99.90;;;;;;5058865;28;20508;-55
2022/11/17 07:39:43;;;;;;;7.38;6.28;;;3.60;99.90;;;;;;5050095;28;20036;-53
2022/11/17 07:42:08;;;;;;;9.38;6.00;;;3.60;99.90;;;;;;5058472;28;20021;-54
2022/11/17 07:44:34;;;;;;;6.93;6.28;;;3.60;99.90;;;;;;5060672;28;20515;-53
2022/11/17 07:47:00;;;;;;;7.07;6.18;;;3.60;99.90;;;;;;5061328;28;20024;-53
2022/11/17 07:49:27;;;;;;;8.13;6.45;;;3.60;99.90;;;;;;5063621;28;20041;-54
2022/11/17 07:51:52;;;;;;;6.90;6.20;;;3.60;99.90;;;;;;5061851;28;20024;-55
2022/11/17 07:54:18;;;;;;;9.10;6.88;;;3.60;99.90;;;;;;5059262;28;20021;-52
2022/11/17 07:56:44;;;;;;;8.48;6.45;;;3.60;99.90;;;;;;5046400;28;20033;-54
2022/11/17 07:59:09;;;;;;;7.78;6.30;;;3.70;99.90;;;;;;5059559;28;20025;-55
2022/11/17 08:01:35;;;;;;;7.82;6.32;;;3.60;99.90;;;;;;5063823;28;20108;-53
2022/11/17 08:04:00;;;;;;;8.07;6.13;;;3.60;99.90;;;;;;5060660;28;20590;-52
2022/11/17 08:06:26;;;;;;;7.53;6.50;;;3.70;99.90;;;;;;5063743;28;20036;-53
2022/11/17 08:08:52;;;;;;;6.97;6.22;;;3.70;99.90;;;;;;5062444;28;20039;-57
2022/11/17 08:11:18;;;;;;;7.78;6.22;;;3.70;99.90;;;;;;5058975;28;20067;-55
2022/11/17 08:13:44;;;;;;;6.57;5.82;;;3.70;99.90;;;;;;5059343;28;20024;-58
2022/11/17 08:16:11;;;;;;;6.63;5.85;;;3.70;99.90;;;;;;5054636;28;20021;-55
2022/11/17 08:18:37;;;;;;;7.22;6.25;;;3.70;99.90;;;;;;5058447;28;20048;-56
2022/11/17 08:21:05;;;;;;;7.88;6.13;;;3.70;99.90;;;;;;5060449;28;20078;-52
2022/11/17 08:23:31;;;;;;;6.80;6.07;;;3.70;99.90;;;;;;5051509;28;20585;-53
2022/11/17 08:25:57;;;;;;;8.05;6.60;;;3.70;99.90;;;;;;5061176;28;20071;-53
2022/11/17 08:28:23;;;;;;;7.57;6.50;;;3.70;99.90;;;;;;5051722;28;20469;-51
2022/11/17 08:30:49;;;;;;;7.22;6.28;;;3.70;99.90;;;;;;5059976;28;20036;-55
2022/11/17 08:33:14;;;;;;;7.28;6.45;;;3.70;99.90;;;;;;5053012;28;20085;-58
2022/11/17 08:35:40;;;;;;;8.43;6.85;;;3.70;99.90;;;;;;5064089;28;20028;-57
2022/11/17 08:38:06;;;;;;;6.95;5.82;;;3.70;99.90;;;;;;5054999;28;20032;-56
2022/11/17 08:40:32;;;;;;;7.20;5.68;;;3.70;99.90;;;;;;5058587;28;20029;-54
2022/11/17 08:42:58;;;;;;;7.45;5.82;;;3.70;99.90;;;;;;5058958;28;20029;-54
2022/11/17 08:45:24;;;;;;;7.28;6.22;;;3.70;99.90;;;;;;5064162;28;20820;-52
2022/11/17 08:47:49;;;;;;;8.68;6.47;;;3.70;99.90;;;;;;5058446;28;20064;-54
2022/11/17 08:50:16;;;;;;;7.95;6.35;;;3.70;99.90;;;;;;5066154;28;20545;-55
2022/11/17 08:52:45;;;;;;;7.90;6.03;;;3.70;99.90;;;;;;5057867;28;20040;-54
2022/11/17 08:55:11;;;;;;;8.02;6.57;;;3.70;99.90;;;;;;5040928;28;20025;-56
2022/11/17 08:57:37;;;;;;;7.35;6.35;;;3.70;99.90;;;;;;5060990;28;20075;-54
2022/11/17 09:00:04;;;;;;;7.60;6.78;;;3.70;99.90;;;;;;5059692;28;20024;-55
2022/11/17 09:02:30;;;;;;;9.15;6.90;;;3.70;99.90;;;;;;5091993;22;20197;-53
2022/11/17 09:04:55;;;;;;;7.00;6.18;;;3.70;99.90;;;;;;5052519;28;20119;-57
2022/11/17 09:07:21;;;;;;;8.45;7.00;;;3.70;99.90;;;;;;5065903;28;20395;-53
2022/11/17 09:09:47;;;;;;;8.15;6.65;;;3.70;99.90;;;;;;5068160;28;20477;-50
2022/11/17 09:12:13;;;;;;;9.20;7.18;;;3.70;99.90;;;;;;5068938;28;20115;-53
2022/11/17 09:14:39;;;;;;;9.57;7.20;;;3.70;99.90;;;;;;5066230;28;20036;-54
2022/11/17 09:17:04;;;;;;;7.63;6.25;;;3.80;99.90;;;;;;5069406;28;20101;-54
2022/11/17 09:19:30;;;;;;;10.30;7.88;;;3.80;99.90;;;;;;5069488;28;20027;-51
2022/11/17 09:21:56;;;;;;;8.13;5.85;;;3.80;99.90;;;;;;5068882;28;20107;-54
2022/11/17 09:24:21;;;;;;;8.90;6.75;;;3.80;99.90;;;;;;5067151;28;20050;-54
2022/11/17 09:26:47;;;;;;;9.73;8.00;;;3.80;99.90;;;;;;5061462;28;20565;-53
2022/11/17 09:29:13;;;;;;;9.80;7.50;;;3.80;99.90;;;;;;5055709;28;20111;-56
2022/11/17 09:31:38;;;;;;;8.15;6.50;;;3.80;99.90;;;;;;5061914;28;20016;-54
2022/11/17 09:34:04;;;;;;;8.00;6.30;;;3.80;99.90;;;;;;5069153;28;20021;-56
2022/11/17 09:36:30;;;;;;;8.05;6.65;;;3.80;99.90;;;;;;5069188;28;20487;-55
2022/11/17 09:38:56;;;;;;;8.25;6.97;;;3.90;99.90;;;;;;5053636;28;20048;-53
2022/11/17 09:41:26;;;;;;;8.90;7.13;;;3.90;99.90;;;;;;5058956;28;20032;-55
2022/11/17 09:44:03;;;;;;;8.73;6.45;;;3.90;99.90;;;;;;5068215;28;20054;-56
2022/11/17 09:46:54;;;;;;;10.75;6.85;;;3.90;99.90;;;;;;5069280;28;20059;-56
2022/11/17 09:49:29;;;;;;;8.25;6.53;;;3.90;99.90;;;;;;5068874;28;20047;-51
2022/11/17 09:52:00;;;;;;;8.27;7.18;;;3.90;99.90;;;;;;5067299;28;20016;-55
2022/11/17 09:54:39;;;;;;;7.72;6.30;;;3.90;99.90;;;;;;5067606;28;20523;-54
2022/11/17 09:57:19;;;;;;;10.07;6.88;;;4.00;99.90;;;;;;5069421;28;20021;-54
2022/11/17 09:59:49;;;;;;;8.07;6.97;;;4.00;99.90;;;;;;5061893;28;20391;-52
2022/11/17 10:02:14;;;;;;;8.93;7.05;;;4.00;99.90;;;;;;5068495;28;20041;-55
2022/11/17 10:04:40;;;;;;;7.72;6.80;;;4.00;99.90;;;;;;5065054;28;20047;-52
2022/11/17 10:07:08;;;;;;;8.95;6.85;;;4.00;99.90;;;;;;5067608;28;20024;-52
2022/11/17 10:09:40;;;;;;;9.40;7.28;;;4.00;99.90;;;;;;5066071;28;20041;-51
2022/11/17 10:12:19;;;;;;;9.00;7.50;;;4.00;99.90;;;;;;5067448;28;20392;-51
2022/11/17 10:14:49;;;;;;;10.77;7.18;;;4.00;99.90;;;;;;5066155;28;20049;-53
2022/11/17 10:17:15;;;;;;;7.90;6.68;;;4.10;99.90;;;;;;5068623;28;20025;-53
2022/11/17 10:19:42;;;;;;;9.27;7.45;;;4.10;99.90;;;;;;5065513;28;20120;-53
2022/11/17 10:22:08;;;;;;;9.70;7.20;;;4.10;99.90;;;;;;5067361;28;20020;-55
2022/11/17 10:24:33;;;;;;;9.00;7.72;;;4.10;99.90;;;;;;5067634;28;20108;-55
2022/11/17 10:27:03;;;;;;;9.55;7.85;;;4.10;99.90;;;;;;5070784;28;20377;-54
2022/11/17 10:29:29;;;;;;;7.43;6.55;;;4.10;99.90;;;;;;5061425;28;20029;-53
2022/11/17 10:31:54;;;;;;;10.02;7.97;;;4.10;99.90;;;;;;5071562;28;20431;-50
2022/11/17 10:34:38;;;;;;;9.38;7.53;;;4.10;99.90;;;;;;5062769;28;20055;-55
2022/11/17 10:37:22;;;;;;;9.20;7.32;;;4.10;99.90;;;;;;5073173;28;20020;-54
2022/11/17 10:39:48;;;;;;;9.63;7.95;;;4.10;99.90;;;;;;5072676;28;20012;-54
2022/11/17 10:42:19;;;;;;;8.45;7.53;;;4.20;99.90;;;;;;5065495;28;20024;-52
2022/11/17 10:44:55;;;;;;;9.13;7.10;;;4.20;99.90;;;;;;5071353;28;20031;-51
2022/11/17 10:47:25;;;;;;;10.60;8.35;;;4.20;99.90;;;;;;5069229;28;20020;-50
2022/11/17 10:50:18;;;;;;;15.93;8.27;;;4.20;99.90;;;;;;5061001;28;20090;-52
2022/11/17 10:52:44;;;;;;;10.30;7.90;;;4.20;99.90;;;;;;5069105;28;20027;-55
2022/11/17 10:55:19;;;;;;;11.60;8.75;;;4.20;99.90;;;;;;5068404;28;20020;-51
2022/11/17 10:57:49;;;;;;;11.20;8.20;;;4.20;99.90;;;;;;5071892;28;20020;-52
2022/11/17 11:00:28;;;;;;;12.25;8.77;;;4.20;99.90;;;;;;5070045;28;20037;-55
2022/11/17 11:03:03;;;;;;;9.63;8.63;;;4.20;99.90;;;;;;5062982;28;20021;-53
2022/11/17 11:05:29;;;;;;;9.70;8.02;;;4.20;99.90;;;;;;5068233;28;20040;-54
2022/11/17 11:08:30;;;;;;;8.35;7.47;;;4.30;99.90;;;;;;5069978;28;20075;-54
2022/11/17 11:10:58;;;;;;;10.18;8.40;;;4.20;99.90;;;;;;5057588;28;20135;-55
2022/11/17 11:13:31;;;;;;;10.00;8.27;;;4.30;99.90;;;;;;5068064;28;20036;-54
2022/11/17 11:15:56;;;;;;;10.43;8.07;;;4.30;99.90;;;;;;5075905;28;20071;-53
2022/11/17 11:18:22;;;;;;;10.63;8.93;;;4.30;99.90;;;;;;5071894;28;20497;-53
2022/11/17 11:21:17;;;;;;;11.45;8.73;;;4.30;99.90;;;;;;5071178;28;20099;-54
2022/11/17 11:23:59;;;;;;;12.07;8.50;;;4.30;99.90;;;;;;5067598;28;20048;-56
2022/11/17 11:26:28;;;;;;;10.60;8.25;;;4.30;99.90;;;;;;5068282;28;20028;-55
2022/11/17 11:29:15;;;;;;;9.18;7.78;;;4.30;99.90;;;;;;5061904;28;20025;-54
2022/11/17 11:32:07;;;;;;;11.10;8.20;;;4.30;99.90;;;;;;5071349;28;20048;-55
2022/11/17 11:35:17;;;;;;;9.93;7.85;;;4.30;99.90;;;;;;5052099;28;20028;-55
2022/11/17 11:37:59;;;;;;;12.98;8.68;;;4.30;99.90;;;;;;5071191;28;20029;-54
2022/11/17 11:40:36;;;;;;;10.45;8.60;;;4.30;99.90;;;;;;5071329;28;20108;-55
2022/11/17 11:43:14;;;;;;;11.27;8.65;;;4.30;99.90;;;;;;5071191;28;20028;-53
2022/11/17 11:46:07;;;;;;;9.07;8.15;;;4.30;99.90;;;;;;5071593;28;20119;-55
2022/11/17 11:48:35;;;;;;;11.13;8.82;;;4.30;99.90;;;;;;5052155;28;20020;-55
2022/11/17 11:51:09;;;;;;;12.07;8.70;;;4.30;99.90;;;;;;5071494;28;20017;-51
2022/11/17 11:53:48;;;;;;;9.55;8.23;;;4.30;99.90;;;;;;5071451;28;20029;-52
2022/11/17 11:56:33;;;;;;;9.55;8.55;;;4.20;99.90;;;;;;5059235;28;20029;-53
2022/11/17 11:59:29;;;;;;;13.23;9.50;;;4.20;99.90;;;;;;5071165;28;20031;-56
2022/11/17 12:02:16;;;;;;;10.73;8.60;;;4.20;99.90;;;;;;5070651;28;20037;-53
2022/11/17 12:05:00;;;;;;;12.02;9.27;;;4.20;99.90;;;;;;5069129;28;20028;-56
2022/11/17 12:07:48;;;;;;;10.88;8.77;;;4.20;99.90;;;;;;5065014;28;20413;-53
2022/11/17 12:10:35;;;;;;;11.00;8.68;;;4.10;99.90;;;;;;5055388;28;20127;-55
2022/11/17 12:13:02;;;;;;;10.20;8.60;;;4.20;99.90;;;;;;5069670;28;20024;-51
2022/11/17 12:15:28;;;;;;;11.27;8.35;;;4.10;99.90;;;;;;5070793;28;20031;-53
2022/11/17 12:17:58;;;;;;;10.40;8.25;;;4.10;99.90;;;;;;5070195;28;20028;-56
2022/11/17 12:20:51;;;;;;;10.93;7.93;;;4.10;99.90;;;;;;5057169;28;20036;-53
2022/11/17 12:23:25;;;;;;;12.82;8.73;;;4.10;99.90;;;;;;5068299;28;20041;-56
2022/11/17 12:25:55;;;;;;;10.80;8.65;;;4.10;99.90;;;;;;5069194;28;20104;-53
2022/11/17 12:28:39;;;;;;;12.35;8.50;;;4.10;99.90;;;;;;5062806;28;20024;-54
2022/11/17 12:31:05;;;;;;;11.43;8.82;;;4.10;99.90;;;;;;5070016;28;20070;-56
2022/11/17 12:33:53;;;;;;;11.20;8.70;;;4.10;99.90;;;;;;5061200;28;20028;-55
2022/11/17 12:36:26;;;;;;;13.68;9.90;;;4.00;99.90;;;;;;5069763;28;20499;-57
2022/11/17 12:38:56;;;;;;;13.82;10.02;;;4.00;99.90;;;;;;5054028;28;20028;-58
2022/11/17 12:41:46;;;;;;;11.55;9.68;;;3.90;99.90;;;;;;5069564;28;20108;-57
2022/11/17 12:44:30;;;;;;;11.40;9.57;;;3.90;99.90;;;;;;5069378;28;20517;-57
2022/11/17 12:47:12;;;;;;;11.27;8.93;;;3.90;99.90;;;;;;5069220;28;20032;-58
2022/11/17 12:49:44;;;;;;;12.57;9.35;;;3.90;99.90;;;;;;5051817;28;20043;-58
2022/11/17 12:52:20;;;;;;;12.32;9.88;;;3.90;99.90;;;;;;5068875;28;20038;-59
2022/11/17 12:54:56;;;;;;;;;;;3.90;99.90;;;;;;5052654;28;20016;-58
2022/11/17 12:57:29;;;;;;;12.57;9.93;;;3.90;99.90;;;;;;5068379;28;19912;-58
2022/11/17 13:00:09;;;;;;;12.98;10.48;;;3.90;99.90;;;;;;5069123;28;20115;-59
2022/11/17 13:02:41;;;;;;;15.02;10.40;;;3.90;99.90;;;;;;5068790;28;20424;-57
2022/11/17 13:05:21;;;;;;;13.80;10.15;;;3.90;99.90;;;;;;5053140;28;20496;-57
2022/11/17 13:07:47;;;;;;;14.57;10.35;;;3.90;99.90;;;;;;5072229;28;20016;-57
2022/11/17 13:10:30;;;;;;;15.50;10.93;;;3.90;99.90;;;;;;5054356;28;20051;-57
2022/11/17 13:13:15;;;;;;;12.00;9.77;;;3.90;99.90;;;;;;5068458;28;20493;-56
2022/11/17 13:15:42;;;;;;;17.52;11.02;;;3.90;99.90;;;;;;5069597;28;20024;-56
2022/11/17 13:18:29;;;;;;;12.32;10.20;;;3.90;99.90;;;;;;5067706;28;20032;-52
2022/11/17 13:20:55;;;;;;;12.80;9.00;;;3.90;99.90;;;;;;5050936;28;20036;-57
2022/11/17 13:23:24;;;;;;;12.85;9.88;;;3.80;99.90;;;;;;5070368;28;20031;-57
2022/11/17 13:26:07;;;;;;;12.68;10.43;;;3.80;99.90;;;;;;5072150;28;20020;-59
2022/11/17 13:28:32;;;;;;;13.00;9.85;;;3.80;99.90;;;;;;5068895;28;20173;-58
2022/11/17 13:30:59;;;;;;;13.60;10.98;;;3.80;99.90;;;;;;5067163;28;20029;-59
2022/11/17 13:33:26;;;;;;;15.00;10.25;;;3.80;99.90;;;;;;5069100;28;20377;-57
2022/11/17 13:36:07;;;;;;;13.05;9.43;;;3.80;99.90;;;;;;5069483;28;20013;-60
2022/11/17 13:38:33;;;;;;;11.60;9.57;;;3.80;99.90;;;;;;5056333;28;20027;-59
2022/11/17 13:41:00;;;;;;;15.68;11.82;;;3.80;99.90;;;;;;5067504;28;20017;-58
2022/11/17 13:43:31;;;;;;;14.38;10.45;;;3.80;99.90;;;;;;5053267;28;20400;-59